Time;durP1;ratioP1;P1;durP2;ratioP2;P2;SDS_P1;SDS_P2;PMS_P1;PMS_P2;Temp;Humidity;BMP_temperature;BMP_pressure;BME280_temperature;BME280_humidity;BME280_pressure;Samples;Min_cycle;Max_cycle;Signal;HPM_P1;HPM_P2
2022/11/29 00:00:19;;;;;;;7.20;2.23;;;8.70;99.90;;;;;;5051216;28;20385;-72
2022/11/29 00:02:45;;;;;;;10.70;6.60;;;8.80;99.90;;;;;;5050472;28;20409;-73
2022/11/29 00:05:11;;;;;;;8.70;2.10;;;8.80;99.90;;;;;;5052668;28;20416;-73
2022/11/29 00:07:36;;;;;;;6.15;2.10;;;8.90;99.90;;;;;;5035321;28;20415;-73
2022/11/29 00:10:02;;;;;;;5.37;2.03;;;8.90;99.90;;;;;;5053046;28;20447;-73
2022/11/29 00:12:28;;;;;;;3.42;2.20;;;8.90;99.90;;;;;;5052200;28;20439;-73
2022/11/29 00:14:53;;;;;;;4.40;1.80;;;8.90;99.90;;;;;;5052379;28;20405;-72
2022/11/29 00:17:19;;;;;;;5.77;2.13;;;8.90;99.90;;;;;;5052606;28;20414;-72
2022/11/29 00:19:44;;;;;;;4.87;1.80;;;8.90;99.90;;;;;;5053046;28;20377;-73
2022/11/29 00:22:10;;;;;;;2.60;1.48;;;9.00;99.90;;;;;;5052695;28;20377;-73
2022/11/29 00:24:35;;;;;;;4.30;1.70;;;9.00;99.90;;;;;;5051440;28;20397;-73
2022/11/29 00:27:01;;;;;;;3.97;2.10;;;8.90;99.90;;;;;;5065878;28;20436;-73
2022/11/29 00:29:27;;;;;;;5.43;1.90;;;8.80;99.90;;;;;;5071553;28;20383;-73
2022/11/29 00:31:53;;;;;;;3.42;1.90;;;8.80;99.90;;;;;;5068096;28;20400;-72
2022/11/29 00:34:18;;;;;;;4.10;2.07;;;8.70;99.90;;;;;;5049861;28;20771;-73
2022/11/29 00:36:44;;;;;;;6.83;2.10;;;8.80;99.90;;;;;;5051175;28;20505;-73
2022/11/29 00:39:10;;;;;;;4.10;1.77;;;8.80;99.90;;;;;;5052427;28;20385;-73
2022/11/29 00:41:37;;;;;;;3.83;1.98;;;8.80;99.90;;;;;;5051188;28;20796;-75
2022/11/29 00:44:02;;;;;;;6.43;1.75;;;8.80;99.90;;;;;;5049015;28;20454;-74
2022/11/29 00:46:28;;;;;;;3.42;1.70;;;8.80;99.90;;;;;;5051255;28;20405;-72
2022/11/29 00:48:53;;;;;;;7.40;1.98;;;8.90;99.90;;;;;;5049982;28;20842;-73
2022/11/29 00:51:19;;;;;;;5.00;2.10;;;8.80;99.90;;;;;;5049063;28;20973;-73
2022/11/29 00:53:44;;;;;;;3.00;1.70;;;8.90;99.90;;;;;;5051420;28;20872;-74
2022/11/29 00:56:10;;;;;;;3.53;1.90;;;8.80;99.90;;;;;;5033009;28;20955;-73
2022/11/29 00:58:36;;;;;;;3.55;1.67;;;8.80;99.90;;;;;;5050938;28;20448;-73
2022/11/29 01:01:02;;;;;;;3.88;1.90;;;8.70;99.90;;;;;;5030863;28;20496;-74
2022/11/29 01:03:27;;;;;;;3.67;2.05;;;8.70;99.90;;;;;;5049377;28;20405;-74
2022/11/29 01:06:03;;;;;;;6.10;2.50;;;8.70;99.90;;;;;;5045295;28;20836;-73
2022/11/29 01:08:29;;;;;;;4.50;1.90;;;8.70;99.90;;;;;;5047665;28;20943;-74
2022/11/29 01:11:05;;;;;;;4.10;1.80;;;8.70;99.90;;;;;;5048050;28;20402;-73
2022/11/29 01:13:31;;;;;;;4.90;2.10;;;8.70;99.90;;;;;;5044841;28;20472;-73
2022/11/29 01:15:57;;;;;;;6.93;2.43;;;8.80;99.90;;;;;;5069880;22;20425;-70
2022/11/29 01:18:23;;;;;;;7.63;2.40;;;8.70;99.90;;;;;;5019233;28;20945;-70
2022/11/29 01:20:57;;;;;;;4.75;1.95;;;8.70;99.90;;;;;;5012230;28;20412;-70
2022/11/29 01:23:22;;;;;;;4.65;1.83;;;8.80;99.90;;;;;;5011304;28;20706;-70
2022/11/29 01:25:59;;;;;;;6.75;2.10;;;8.80;99.90;;;;;;5011989;28;20397;-70
2022/11/29 01:28:25;;;;;;;4.25;2.28;;;8.80;99.90;;;;;;5011796;28;20484;-69
2022/11/29 01:30:51;;;;;;;3.17;1.50;;;8.80;99.90;;;;;;5012103;28;20476;-70
2022/11/29 01:33:17;;;;;;;4.72;2.20;;;9.00;99.90;;;;;;5011008;28;20911;-69
2022/11/29 01:35:47;;;;;;;4.25;2.30;;;8.80;99.90;;;;;;5011639;28;20389;-70
2022/11/29 01:38:13;;;;;;;4.05;1.70;;;8.80;99.90;;;;;;4992387;28;20776;-68
2022/11/29 01:40:38;;;;;;;4.90;2.17;;;8.70;99.90;;;;;;5010873;28;20384;-70
2022/11/29 01:43:16;;;;;;;4.25;1.88;;;8.80;99.90;;;;;;5010760;28;20803;-70
2022/11/29 01:45:42;;;;;;;5.03;1.70;;;8.80;99.90;;;;;;5004723;28;20397;-68
2022/11/29 01:48:08;;;;;;;5.20;2.40;;;8.80;99.90;;;;;;5011477;28;20401;-71
2022/11/29 01:50:34;;;;;;;5.43;1.80;;;8.80;99.90;;;;;;5011580;28;20751;-70
2022/11/29 01:52:59;;;;;;;3.30;1.80;;;8.80;99.90;;;;;;4993205;28;20388;-71
2022/11/29 01:55:26;;;;;;;3.08;1.58;;;8.70;99.90;;;;;;5011030;28;20397;-70
2022/11/29 01:57:51;;;;;;;4.97;2.00;;;8.70;99.90;;;;;;5011229;28;20783;-70
2022/11/29 02:00:18;;;;;;;7.00;2.10;;;8.70;99.90;;;;;;5011414;28;20389;-71
2022/11/29 02:02:50;;;;;;;4.00;1.65;;;8.70;99.90;;;;;;5010449;28;20397;-70
2022/11/29 02:05:17;;;;;;;3.70;1.80;;;8.50;99.90;;;;;;5011145;28;20405;-70
2022/11/29 02:07:47;;;;;;;3.88;1.65;;;8.50;99.90;;;;;;5011134;28;20404;-69
2022/11/29 02:10:14;;;;;;;4.95;1.85;;;8.50;99.90;;;;;;5011116;28;20389;-69
2022/11/29 02:13:04;;;;;;;5.10;1.83;;;8.40;99.90;;;;;;5010489;28;20735;-70
2022/11/29 02:15:53;;;;;;;1.52;1.42;;;8.40;99.90;;;;;;5010975;28;20420;-70
2022/11/29 02:18:39;;;;;;;3.20;1.60;;;8.30;99.90;;;;;;5010726;28;20405;-70
2022/11/29 02:21:21;;;;;;;7.38;2.10;;;8.30;99.90;;;;;;4993566;28;20393;-69
2022/11/29 02:24:13;;;;;;;1.67;1.35;;;8.20;99.90;;;;;;4992817;28;20396;-70
2022/11/29 02:27:03;;;;;;;3.33;1.35;;;8.10;99.90;;;;;;5000736;28;20419;-70
2022/11/29 02:30:01;;;;;;;3.65;1.70;;;8.10;99.90;;;;;;5010845;28;20384;-70
2022/11/29 02:32:58;;;;;;;3.47;1.83;;;8.10;99.90;;;;;;5010616;28;20931;-69
2022/11/29 02:35:52;;;;;;;3.95;1.70;;;8.10;99.90;;;;;;4996409;28;20415;-69
2022/11/29 02:38:47;;;;;;;2.97;1.45;;;8.10;99.90;;;;;;5010722;28;20499;-70
2022/11/29 02:41:42;;;;;;;5.23;1.67;;;8.10;99.90;;;;;;5001215;28;20392;-69
2022/11/29 02:44:17;;;;;;;3.97;1.77;;;8.10;99.90;;;;;;5009671;28;20439;-69
2022/11/29 02:47:06;;;;;;;3.55;1.38;;;8.20;99.90;;;;;;5010713;28;20472;-70
2022/11/29 02:49:31;;;;;;;6.60;1.60;;;8.20;99.90;;;;;;5010384;28;20385;-70
2022/11/29 02:52:01;;;;;;;3.20;1.60;;;8.00;99.90;;;;;;5009974;28;20388;-70
2022/11/29 02:54:44;;;;;;;2.60;1.60;;;8.00;99.90;;;;;;5009206;28;20393;-69
2022/11/29 02:57:28;;;;;;;3.22;1.70;;;8.00;99.90;;;;;;5010532;28;20766;-69
2022/11/29 03:00:08;;;;;;;3.67;1.90;;;7.90;99.90;;;;;;5010475;28;20388;-70
2022/11/29 03:02:34;;;;;;;3.28;1.70;;;7.90;99.90;;;;;;5009743;28;20435;-69
2022/11/29 03:05:16;;;;;;;3.40;2.00;;;7.90;99.90;;;;;;5009942;28;20392;-69
2022/11/29 03:08:03;;;;;;;3.40;1.90;;;7.90;99.90;;;;;;5010310;28;20946;-70
2022/11/29 03:10:31;;;;;;;5.47;2.30;;;7.80;99.90;;;;;;4992522;28;20407;-69
2022/11/29 03:12:58;;;;;;;2.42;1.55;;;7.90;99.90;;;;;;5009455;28;20397;-70
2022/11/29 03:15:37;;;;;;;3.55;1.80;;;7.90;99.90;;;;;;5010262;28;20405;-69
2022/11/29 03:18:40;;;;;;;3.65;1.95;;;8.00;99.90;;;;;;5010228;28;20412;-69
2022/11/29 03:21:40;;;;;;;5.15;1.70;;;8.00;99.90;;;;;;5010264;28;20439;-70
2022/11/29 03:24:51;;;;;;;3.60;1.60;;;7.90;99.90;;;;;;5009066;28;20392;-70
2022/11/29 03:27:30;;;;;;;4.07;1.75;;;7.90;99.90;;;;;;5009939;28;20397;-69
2022/11/29 03:29:59;;;;;;;3.15;1.77;;;7.90;99.90;;;;;;5010054;28;20404;-70
2022/11/29 03:32:32;;;;;;;4.22;1.80;;;7.90;99.90;;;;;;5009907;28;20494;-69
2022/11/29 03:35:35;;;;;;;3.53;1.57;;;7.90;99.90;;;;;;5009695;28;20994;-70
2022/11/29 03:38:39;;;;;;;2.80;1.52;;;7.80;99.90;;;;;;5010164;28;20473;-70
2022/11/29 03:41:46;;;;;;;4.95;1.55;;;7.80;99.90;;;;;;5010227;28;20408;-69
2022/11/29 03:44:16;;;;;;;3.33;1.60;;;7.70;99.90;;;;;;4967335;28;20801;-69
2022/11/29 03:47:06;;;;;;;3.95;2.00;;;7.70;99.90;;;;;;4968848;28;20407;-69
2022/11/29 03:49:46;;;;;;;3.60;1.67;;;7.70;99.90;;;;;;4983128;28;20398;-69
2022/11/29 03:52:34;;;;;;;2.72;1.80;;;7.70;99.90;;;;;;5007089;28;20401;-71
2022/11/29 03:55:11;;;;;;;3.53;1.90;;;7.70;99.90;;;;;;5009855;28;20385;-69
2022/11/29 03:57:47;;;;;;;4.65;2.00;;;7.60;99.90;;;;;;5009851;28;20401;-71
2022/11/29 04:00:14;;;;;;;4.03;2.17;;;7.60;99.90;;;;;;5009490;28;20390;-69
2022/11/29 04:02:56;;;;;;;4.38;2.00;;;7.60;99.90;;;;;;5009938;28;20887;-70
2022/11/29 04:05:33;;;;;;;5.70;1.90;;;7.70;99.90;;;;;;5013238;28;20404;-69
2022/11/29 04:08:11;;;;;;;5.15;1.92;;;7.70;99.90;;;;;;5013485;28;20494;-69
2022/11/29 04:11:19;;;;;;;4.80;2.40;;;7.60;99.90;;;;;;5008382;28;20895;-70
2022/11/29 04:13:56;;;;;;;4.10;2.42;;;7.60;99.90;;;;;;5012815;28;20393;-70
2022/11/29 04:16:40;;;;;;;2.70;1.70;;;7.60;99.90;;;;;;5013125;28;20441;-70
2022/11/29 04:19:55;;;;;;;4.60;1.85;;;7.60;99.90;;;;;;5012923;28;20459;-69
2022/11/29 04:22:47;;;;;;;3.50;1.67;;;7.60;99.90;;;;;;5013176;28;20388;-69
2022/11/29 04:25:38;;;;;;;3.00;2.20;;;7.60;99.90;;;;;;5013311;28;20387;-70
2022/11/29 04:28:50;;;;;;;3.92;1.90;;;7.50;99.90;;;;;;5013144;28;20389;-69
2022/11/29 04:31:46;;;;;;;4.80;1.65;;;7.60;99.90;;;;;;5013364;28;20392;-71
2022/11/29 04:34:36;;;;;;;3.70;1.73;;;7.40;99.90;;;;;;5012584;28;20391;-69
2022/11/29 04:37:20;;;;;;;5.03;1.90;;;7.30;99.90;;;;;;5012967;28;20893;-69
2022/11/29 04:40:08;;;;;;;6.93;1.77;;;7.40;99.90;;;;;;5013145;28;20420;-69
2022/11/29 04:42:51;;;;;;;3.10;1.75;;;7.40;99.90;;;;;;4993077;28;20396;-69
2022/11/29 04:45:54;;;;;;;4.60;2.10;;;7.30;99.90;;;;;;5013069;28;20417;-70
2022/11/29 04:48:37;;;;;;;2.92;2.13;;;7.20;99.90;;;;;;5012736;28;20431;-70
2022/11/29 04:51:06;;;;;;;3.00;1.90;;;7.20;99.90;;;;;;5012651;28;20750;-69
2022/11/29 04:53:54;;;;;;;4.32;2.00;;;7.20;99.90;;;;;;5012252;28;20412;-70
2022/11/29 04:56:50;;;;;;;4.85;1.90;;;7.20;99.90;;;;;;5012453;28;20401;-69
2022/11/29 04:59:36;;;;;;;3.15;2.13;;;7.20;99.90;;;;;;5012975;28;20771;-70
2022/11/29 05:02:26;;;;;;;4.88;2.08;;;7.20;99.90;;;;;;5012873;28;20385;-70
2022/11/29 05:05:20;;;;;;;3.45;2.10;;;7.20;99.90;;;;;;5012296;28;20786;-69
2022/11/29 05:08:13;;;;;;;5.28;2.40;;;7.10;99.90;;;;;;5012185;28;20404;-69
2022/11/29 05:11:12;;;;;;;3.17;2.10;;;7.00;99.90;;;;;;5012489;28;20395;-70
2022/11/29 05:13:59;;;;;;;3.17;2.10;;;6.90;99.90;;;;;;5011686;28;20482;-69
2022/11/29 05:16:47;;;;;;;3.97;2.05;;;7.00;99.90;;;;;;5011856;28;20521;-70
2022/11/29 05:19:40;;;;;;;3.90;2.00;;;6.90;99.90;;;;;;5012433;28;20431;-70
2022/11/29 05:22:30;;;;;;;6.03;2.00;;;6.90;99.90;;;;;;5012167;28;20393;-69
2022/11/29 05:25:23;;;;;;;3.20;2.20;;;6.90;99.90;;;;;;5011652;28;20439;-70
2022/11/29 05:28:02;;;;;;;3.27;2.00;;;6.80;99.90;;;;;;5011856;28;20408;-70
2022/11/29 05:30:46;;;;;;;2.47;2.00;;;6.70;99.90;;;;;;5012211;28;20389;-70
2022/11/29 05:33:41;;;;;;;3.35;2.40;;;6.70;99.90;;;;;;5011629;28;20420;-70
2022/11/29 05:36:38;;;;;;;3.05;1.70;;;6.60;99.90;;;;;;5011618;28;20408;-69
2022/11/29 05:39:19;;;;;;;4.55;1.90;;;6.60;99.90;;;;;;5011981;28;20447;-70
2022/11/29 05:42:00;;;;;;;3.05;2.00;;;6.60;99.90;;;;;;5012032;28;20859;-70
2022/11/29 05:44:38;;;;;;;3.65;2.20;;;6.50;99.90;;;;;;5010705;28;20405;-70
2022/11/29 05:47:08;;;;;;;4.33;2.30;;;6.50;99.90;;;;;;5002148;28;20524;-70
2022/11/29 05:49:56;;;;;;;3.35;2.15;;;6.50;99.90;;;;;;5012509;28;20404;-70
2022/11/29 05:52:28;;;;;;;3.10;2.30;;;6.50;99.90;;;;;;5020982;28;20447;-69
2022/11/29 05:55:16;;;;;;;3.85;2.20;;;6.50;99.90;;;;;;5018304;28;20408;-71
2022/11/29 05:58:20;;;;;;;5.55;2.20;;;6.50;99.90;;;;;;5025619;28;20407;-69
2022/11/29 06:00:59;;;;;;;3.50;2.20;;;6.50;99.90;;;;;;5000163;28;20496;-72
2022/11/29 06:03:40;;;;;;;2.95;2.00;;;6.40;99.90;;;;;;5018280;28;20416;-71
2022/11/29 06:06:24;;;;;;;4.15;1.90;;;6.30;99.90;;;;;;5010036;28;20404;-71
2022/11/29 06:09:06;;;;;;;5.40;2.80;;;6.20;99.90;;;;;;5010132;28;20409;-71
2022/11/29 06:11:43;;;;;;;4.88;2.60;;;6.20;99.90;;;;;;5011299;28;20871;-72
2022/11/29 06:14:40;;;;;;;5.13;2.30;;;6.10;99.90;;;;;;5002215;28;20406;-71
2022/11/29 06:17:47;;;;;;;5.85;2.72;;;6.10;99.90;;;;;;5009674;28;20771;-71
2022/11/29 06:20:45;;;;;;;3.70;2.17;;;6.20;99.90;;;;;;4995761;28;20448;-70
2022/11/29 06:23:13;;;;;;;3.20;2.22;;;6.10;99.90;;;;;;5008469;28;20408;-70
2022/11/29 06:25:52;;;;;;;4.00;2.60;;;6.10;99.90;;;;;;5010483;28;20382;-70
2022/11/29 06:28:42;;;;;;;4.30;2.95;;;6.00;99.90;;;;;;5010087;28;20827;-70
2022/11/29 06:31:11;;;;;;;3.60;2.50;;;6.10;99.90;;;;;;5010397;28;20431;-70
2022/11/29 06:33:48;;;;;;;3.83;2.30;;;6.00;99.90;;;;;;5008434;28;20414;-70
2022/11/29 06:36:16;;;;;;;4.93;2.40;;;6.00;99.90;;;;;;5016104;28;20490;-69
2022/11/29 06:38:42;;;;;;;4.53;2.40;;;6.00;99.90;;;;;;5015310;28;20862;-70
2022/11/29 06:41:16;;;;;;;4.30;3.13;;;5.90;99.90;;;;;;5023704;28;20482;-70
2022/11/29 06:43:42;;;;;;;5.93;2.70;;;5.90;99.90;;;;;;5010228;28;20436;-69
2022/11/29 06:46:41;;;;;;;5.32;2.70;;;5.80;99.90;;;;;;5010433;28;20775;-69
2022/11/29 06:49:34;;;;;;;2.72;2.20;;;5.80;99.90;;;;;;5020351;28;20456;-69
2022/11/29 06:52:18;;;;;;;5.95;3.13;;;5.80;99.90;;;;;;5011462;28;20499;-69
2022/11/29 06:55:16;;;;;;;4.73;3.33;;;5.70;99.90;;;;;;5008998;28;20418;-70
2022/11/29 06:58:02;;;;;;;4.88;2.90;;;5.70;99.90;;;;;;5009951;28;20787;-69
2022/11/29 07:00:38;;;;;;;3.63;2.90;;;5.60;99.90;;;;;;4989467;28;20768;-70
2022/11/29 07:03:42;;;;;;;3.58;2.47;;;5.70;99.90;;;;;;5002868;28;20407;-70
2022/11/29 07:06:24;;;;;;;3.92;2.65;;;5.70;99.90;;;;;;4937258;28;20413;-69
2022/11/29 07:09:00;;;;;;;4.27;2.80;;;5.70;99.90;;;;;;4935566;29;20522;-69
2022/11/29 07:11:26;;;;;;;5.10;2.90;;;5.70;99.90;;;;;;4979411;28;20507;-71
2022/11/29 07:13:52;;;;;;;3.58;2.40;;;5.70;99.90;;;;;;5008569;28;20408;-70
2022/11/29 07:16:52;;;;;;;4.43;2.90;;;5.70;99.90;;;;;;5036615;22;20528;-72
2022/11/29 07:19:44;;;;;;;5.20;2.33;;;5.70;99.90;;;;;;5048699;28;20407;-72
2022/11/29 07:22:47;;;;;;;4.10;2.85;;;5.70;99.90;;;;;;5051102;28;20403;-72
2022/11/29 07:25:37;;;;;;;3.67;2.50;;;5.70;99.90;;;;;;5048180;28;20492;-72
2022/11/29 07:28:47;;;;;;;3.30;3.00;;;5.70;99.90;;;;;;5052051;28;20443;-72
2022/11/29 07:31:24;;;;;;;4.73;3.30;;;5.70;99.90;;;;;;5046950;28;20791;-71
2022/11/29 07:34:16;;;;;;;5.88;2.50;;;5.70;99.90;;;;;;5049439;28;20386;-72
2022/11/29 07:37:14;;;;;;;5.35;2.60;;;5.70;99.90;;;;;;5049928;28;20799;-71
2022/11/29 07:40:12;;;;;;;4.00;2.67;;;5.80;99.90;;;;;;5053593;28;20400;-71
2022/11/29 07:43:03;;;;;;;6.70;2.92;;;5.70;99.90;;;;;;5053075;28;20925;-71
2022/11/29 07:45:30;;;;;;;6.70;2.60;;;5.80;99.90;;;;;;5053931;28;20385;-71
2022/11/29 07:47:57;;;;;;;4.82;2.60;;;5.90;99.90;;;;;;5053811;28;20447;-71
2022/11/29 07:50:25;;;;;;;5.93;2.55;;;5.90;99.90;;;;;;5053794;28;20411;-71
2022/11/29 07:52:50;;;;;;;5.30;3.15;;;6.00;99.90;;;;;;5035025;28;20389;-71
2022/11/29 07:55:18;;;;;;;3.30;2.67;;;6.00;99.90;;;;;;5053554;28;20405;-72
2022/11/29 07:57:44;;;;;;;5.15;3.00;;;6.10;99.90;;;;;;5053590;28;20397;-72
2022/11/29 08:00:10;;;;;;;3.60;2.70;;;6.10;99.90;;;;;;5053400;28;20401;-72
2022/11/29 08:02:36;;;;;;;5.30;2.90;;;6.30;99.90;;;;;;5052789;28;20404;-72
2022/11/29 08:05:02;;;;;;;4.43;2.50;;;6.30;99.90;;;;;;5052600;28;20381;-71
2022/11/29 08:07:28;;;;;;;3.88;3.10;;;6.30;99.90;;;;;;5035572;28;20820;-72
2022/11/29 08:09:54;;;;;;;2.70;2.50;;;6.30;99.90;;;;;;5053016;28;20563;-71
2022/11/29 08:12:20;;;;;;;5.63;2.83;;;6.20;99.90;;;;;;5052934;28;20404;-71
2022/11/29 08:14:45;;;;;;;4.88;2.72;;;6.20;99.90;;;;;;5052553;28;20431;-72
2022/11/29 08:17:11;;;;;;;7.93;3.10;;;6.30;99.90;;;;;;5053871;28;20416;-71
2022/11/29 08:19:36;;;;;;;4.00;2.50;;;6.30;99.90;;;;;;5053274;28;20421;-71
2022/11/29 08:22:02;;;;;;;4.80;2.90;;;6.30;99.90;;;;;;5053390;28;20465;-71
2022/11/29 08:24:27;;;;;;;4.87;2.83;;;6.30;99.90;;;;;;5052512;28;20477;-71
2022/11/29 08:26:53;;;;;;;5.10;2.67;;;6.20;99.90;;;;;;5053112;28;20406;-71
2022/11/29 08:29:18;;;;;;;6.00;3.30;;;6.30;99.90;;;;;;5052676;28;20964;-71
2022/11/29 08:31:44;;;;;;;5.97;3.70;;;6.30;99.90;;;;;;5053359;28;20425;-71
2022/11/29 08:34:10;;;;;;;7.40;3.50;;;6.30;99.90;;;;;;5050585;28;20401;-72
2022/11/29 08:36:36;;;;;;;5.80;3.90;;;6.20;99.90;;;;;;5052988;28;20424;-71
2022/11/29 08:39:03;;;;;;;6.28;3.80;;;6.20;99.90;;;;;;5052736;28;20919;-72
2022/11/29 08:41:29;;;;;;;4.50;3.80;;;6.30;99.90;;;;;;5052923;28;20381;-71
2022/11/29 08:43:55;;;;;;;5.17;3.47;;;6.30;99.90;;;;;;5051613;28;20473;-71
2022/11/29 08:46:20;;;;;;;3.90;3.47;;;6.40;99.90;;;;;;5052743;28;20418;-72
2022/11/29 08:48:46;;;;;;;4.75;3.78;;;6.40;99.90;;;;;;5051712;28;20409;-72
2022/11/29 08:51:13;;;;;;;4.07;3.67;;;6.40;99.90;;;;;;5052493;28;20385;-72
2022/11/29 08:53:41;;;;;;;5.73;3.57;;;6.50;99.90;;;;;;5052218;28;20473;-72
2022/11/29 08:56:15;;;;;;;6.18;3.67;;;6.60;99.90;;;;;;5052848;28;20511;-73
2022/11/29 08:58:41;;;;;;;4.90;3.25;;;6.50;99.90;;;;;;5052645;28;20748;-72
2022/11/29 09:01:14;;;;;;;4.28;3.88;;;6.70;99.90;;;;;;5052810;28;20380;-72
2022/11/29 09:03:59;;;;;;;5.45;3.90;;;6.80;99.90;;;;;;5051488;28;20421;-72
2022/11/29 09:06:26;;;;;;;5.13;3.50;;;6.80;99.90;;;;;;5052471;28;20886;-72
2022/11/29 09:08:55;;;;;;;4.70;3.67;;;7.00;99.90;;;;;;5051255;28;20481;-72
2022/11/29 09:11:22;;;;;;;6.22;3.67;;;7.00;99.90;;;;;;5042480;28;20444;-72
2022/11/29 09:13:51;;;;;;;5.53;3.53;;;7.10;99.90;;;;;;5051459;28;20378;-72
2022/11/29 09:16:19;;;;;;;5.05;3.25;;;7.40;99.90;;;;;;5052011;28;20933;-72
2022/11/29 09:18:47;;;;;;;5.63;3.78;;;7.40;99.90;;;;;;5051929;28;20405;-72
2022/11/29 09:21:14;;;;;;;6.03;3.60;;;7.50;99.90;;;;;;5034242;28;20374;-72
2022/11/29 09:23:42;;;;;;;5.35;3.55;;;7.50;99.90;;;;;;5051207;28;20380;-72
2022/11/29 09:26:09;;;;;;;5.40;3.77;;;7.50;99.90;;;;;;5052052;28;20397;-72
2022/11/29 09:28:35;;;;;;;5.55;3.60;;;7.50;99.90;;;;;;5051677;28;20847;-72
2022/11/29 09:31:09;;;;;;;5.22;3.60;;;7.70;99.90;;;;;;5052030;28;20408;-73
2022/11/29 09:33:35;;;;;;;7.35;3.60;;;7.80;99.90;;;;;;5051915;28;20424;-73
2022/11/29 09:36:02;;;;;;;7.80;3.73;;;7.90;99.90;;;;;;5051848;28;20405;-72
2022/11/29 09:38:28;;;;;;;5.55;3.40;;;7.80;99.90;;;;;;5051603;28;20439;-72
2022/11/29 09:40:56;;;;;;;5.07;3.35;;;8.00;99.90;;;;;;5051748;28;20429;-72
2022/11/29 09:43:45;;;;;;;5.28;3.60;;;8.10;99.90;;;;;;5033212;28;20389;-72
2022/11/29 09:46:20;;;;;;;5.88;3.53;;;8.10;99.90;;;;;;5051628;28;20381;-72
2022/11/29 09:48:52;;;;;;;4.22;3.20;;;8.10;99.90;;;;;;5051334;28;20420;-72
2022/11/29 09:51:39;;;;;;;9.90;4.38;;;8.10;99.90;;;;;;5051625;28;20886;-72
2022/11/29 09:54:40;;;;;;;5.95;3.30;;;8.00;99.90;;;;;;5050626;28;20397;-72
2022/11/29 09:57:07;;;;;;;6.40;3.70;;;8.10;99.90;;;;;;5048997;28;20500;-72
2022/11/29 09:59:51;;;;;;;5.20;2.70;;;8.10;99.90;;;;;;5050357;28;21366;-73
2022/11/29 10:02:30;;;;;;;4.25;2.90;;;8.00;99.90;;;;;;5051281;28;20747;-72
2022/11/29 10:05:09;;;;;;;5.65;3.38;;;8.00;99.90;;;;;;5051211;28;20465;-73
2022/11/29 10:07:44;;;;;;;5.93;3.30;;;8.10;99.90;;;;;;5051133;28;20392;-72
2022/11/29 10:10:23;;;;;;;5.57;3.10;;;8.20;99.90;;;;;;5051217;28;20467;-73
2022/11/29 10:12:58;;;;;;;4.55;2.63;;;8.20;99.90;;;;;;5050518;28;20415;-73
2022/11/29 10:15:40;;;;;;;5.18;3.25;;;8.20;99.90;;;;;;5051154;28;20380;-73
2022/11/29 10:18:37;;;;;;;6.25;2.60;;;8.30;99.90;;;;;;5050454;28;20417;-73
2022/11/29 10:21:11;;;;;;;3.95;2.50;;;8.40;99.90;;;;;;5051118;28;20875;-72
2022/11/29 10:23:48;;;;;;;4.13;2.40;;;8.30;99.90;;;;;;5050266;28;20381;-72
2022/11/29 10:26:14;;;;;;;6.68;5.40;;;8.30;99.90;;;;;;5050225;28;20416;-73
2022/11/29 10:28:44;;;;;;;7.43;4.32;;;8.30;99.90;;;;;;5050834;28;20468;-73
2022/11/29 10:31:42;;;;;;;7.20;4.90;;;8.40;99.90;;;;;;5050897;28;20378;-72
2022/11/29 10:34:14;;;;;;;8.38;4.30;;;8.50;99.90;;;;;;5041039;28;20389;-73
2022/11/29 10:36:44;;;;;;;5.63;4.30;;;8.50;99.90;;;;;;5050394;28;20447;-72
2022/11/29 10:39:13;;;;;;;4.15;3.42;;;8.50;99.90;;;;;;5050764;28;20385;-73
2022/11/29 10:41:39;;;;;;;4.18;3.58;;;8.50;99.90;;;;;;5032815;28;20393;-72
2022/11/29 10:44:05;;;;;;;5.88;3.30;;;8.60;99.90;;;;;;5049769;28;20388;-73
2022/11/29 10:46:34;;;;;;;6.03;3.50;;;8.50;99.90;;;;;;5050615;28;20453;-72
2022/11/29 10:49:03;;;;;;;6.40;3.65;;;8.60;99.90;;;;;;5032513;28;20400;-72
2022/11/29 10:51:30;;;;;;;7.18;4.10;;;8.70;99.90;;;;;;5050552;28;20392;-73
2022/11/29 10:54:01;;;;;;;5.50;4.70;;;8.50;99.90;;;;;;5049692;28;20381;-72
2022/11/29 10:56:34;;;;;;;6.65;3.80;;;8.70;99.90;;;;;;5050490;28;20945;-72
2022/11/29 10:59:04;;;;;;;8.83;4.20;;;8.70;99.90;;;;;;5050862;28;20517;-73
2022/11/29 11:01:32;;;;;;;6.67;3.60;;;8.70;99.90;;;;;;5050986;28;20892;-73
2022/11/29 11:03:59;;;;;;;4.28;3.88;;;8.80;99.90;;;;;;5050203;28;20446;-72
2022/11/29 11:06:58;;;;;;;8.33;4.17;;;8.90;99.90;;;;;;5050609;28;20429;-72
2022/11/29 11:09:35;;;;;;;8.68;4.53;;;8.80;99.90;;;;;;5050394;28;20394;-72
2022/11/29 11:12:04;;;;;;;7.38;3.90;;;8.90;99.90;;;;;;5050061;28;20404;-72
2022/11/29 11:14:39;;;;;;;4.78;3.90;;;9.00;99.90;;;;;;5049321;28;20588;-72
2022/11/29 11:17:24;;;;;;;7.18;4.25;;;9.00;99.90;;;;;;5050156;28;20810;-72
2022/11/29 11:19:56;;;;;;;9.82;4.60;;;8.90;99.90;;;;;;5050117;28;20378;-72
2022/11/29 11:22:23;;;;;;;9.50;3.97;;;8.90;99.90;;;;;;5032270;28;21037;-72
2022/11/29 11:25:00;;;;;;;5.80;3.50;;;9.00;99.90;;;;;;5049345;28;20864;-72
2022/11/29 11:27:40;;;;;;;4.97;3.53;;;9.00;99.90;;;;;;5050182;28;20389;-72
2022/11/29 11:30:16;;;;;;;10.63;3.90;;;9.00;99.90;;;;;;5050151;28;20382;-72
2022/11/29 11:33:21;;;;;;;4.55;3.58;;;9.00;99.90;;;;;;5031355;28;21316;-72
2022/11/29 11:36:06;;;;;;;5.93;3.80;;;9.00;99.90;;;;;;5050212;28;20480;-72
2022/11/29 11:38:47;;;;;;;7.28;4.35;;;9.00;99.90;;;;;;5032402;28;20409;-72
2022/11/29 11:42:35;;;;;;;7.57;4.70;;;8.90;99.90;;;;;;5049851;28;20396;-72
2022/11/29 11:44:22;;;;;;;8.60;4.55;;;9.00;99.90;;;;;;5048673;28;20385;-72
2022/11/29 11:46:49;;;;;;;7.03;4.28;;;8.80;99.90;;;;;;5049984;28;20378;-73
2022/11/29 11:49:29;;;;;;;6.35;4.82;;;8.90;99.90;;;;;;5050414;28;20884;-73
2022/11/29 11:51:56;;;;;;;8.63;4.38;;;8.90;99.90;;;;;;5050334;28;20381;-72
2022/11/29 11:54:22;;;;;;;7.50;4.10;;;8.80;99.90;;;;;;5048667;28;20891;-72
2022/11/29 11:56:47;;;;;;;5.32;3.08;;;8.80;99.90;;;;;;5049676;28;20497;-72
2022/11/29 11:59:23;;;;;;;6.32;3.90;;;8.80;99.90;;;;;;5049896;28;20378;-73
2022/11/29 12:01:49;;;;;;;5.35;3.38;;;9.00;99.90;;;;;;5049812;28;20848;-73
2022/11/29 12:04:18;;;;;;;4.60;2.40;;;8.80;99.90;;;;;;5048728;28;20393;-73
2022/11/29 12:07:01;;;;;;;3.80;2.30;;;8.80;99.90;;;;;;5049734;28;20382;-72
2022/11/29 12:09:41;;;;;;;5.18;1.85;;;8.80;99.90;;;;;;5049683;28;20421;-73
2022/11/29 12:12:18;;;;;;;7.80;2.42;;;8.60;99.90;;;;;;5049370;28;20381;-73
2022/11/29 12:15:01;;;;;;;5.50;2.10;;;8.60;99.90;;;;;;5048974;28;21146;-72
2022/11/29 12:17:31;;;;;;;4.13;2.25;;;8.50;99.90;;;;;;5049566;28;20401;-73
2022/11/29 12:20:21;;;;;;;5.60;2.60;;;8.40;99.90;;;;;;5049573;28;20386;-72
2022/11/29 12:23:29;;;;;;;4.28;2.00;;;8.40;99.90;;;;;;5048605;28;20911;-73
2022/11/29 12:26:05;;;;;;;5.00;2.20;;;8.30;99.90;;;;;;5009279;28;20412;-73
2022/11/29 12:28:39;;;;;;;5.90;2.42;;;8.40;99.90;;;;;;5031209;28;20387;-72
2022/11/29 12:31:13;;;;;;;3.10;2.23;;;8.30;99.90;;;;;;5033086;28;20885;-73
2022/11/29 12:34:16;;;;;;;10.10;2.55;;;8.30;99.90;;;;;;5046321;28;21024;-73
2022/11/29 12:37:06;;;;;;;6.80;2.70;;;8.30;99.90;;;;;;5052849;28;20535;-73
2022/11/29 12:39:48;;;;;;;8.30;2.97;;;8.50;99.90;;;;;;5034965;28;20385;-73
2022/11/29 12:42:35;;;;;;;5.75;2.40;;;8.30;99.90;;;;;;5052682;28;20423;-72
2022/11/29 12:45:18;;;;;;;3.75;1.80;;;8.30;99.90;;;;;;5052825;28;20390;-73
2022/11/29 12:47:50;;;;;;;6.35;2.40;;;8.20;99.90;;;;;;5052882;28;20443;-73
2022/11/29 12:50:34;;;;;;;5.28;1.88;;;8.00;99.90;;;;;;5052425;28;20476;-73
2022/11/29 12:53:20;;;;;;;6.55;1.95;;;8.10;99.90;;;;;;5052047;28;20385;-74
2022/11/29 12:56:13;;;;;;;4.80;1.98;;;8.10;99.90;;;;;;5052962;28;20385;-72
2022/11/29 12:58:57;;;;;;;4.90;1.90;;;8.20;99.90;;;;;;5053270;28;20382;-73
2022/11/29 13:01:36;;;;;;;4.80;2.40;;;8.00;99.90;;;;;;5035211;28;20486;-74
2022/11/29 13:04:23;;;;;;;4.88;2.22;;;8.00;99.90;;;;;;5051044;28;20721;-73
2022/11/29 13:07:10;;;;;;;4.77;2.47;;;8.00;99.90;;;;;;5052648;28;20459;-73
2022/11/29 13:10:02;;;;;;;5.57;2.40;;;7.90;99.90;;;;;;5052298;28;20440;-73
2022/11/29 13:12:47;;;;;;;8.18;2.80;;;7.90;99.90;;;;;;5057204;28;20413;-73
2022/11/29 13:15:19;;;;;;;5.95;2.30;;;8.00;99.90;;;;;;5049090;28;20410;-72
2022/11/29 13:18:09;;;;;;;5.28;2.10;;;8.00;99.90;;;;;;5052214;22;20442;-71
2022/11/29 13:20:51;;;;;;;6.53;2.80;;;8.50;99.90;;;;;;5028300;28;20399;-72
2022/11/29 13:23:33;;;;;;;5.93;2.65;;;7.90;99.90;;;;;;5029594;28;20395;-70
2022/11/29 13:26:05;;;;;;;6.22;2.80;;;7.90;99.90;;;;;;5026180;28;20408;-71
2022/11/29 13:28:38;;;;;;;4.93;2.65;;;7.90;99.90;;;;;;5022575;28;20413;-70
2022/11/29 13:31:08;;;;;;;6.07;2.88;;;7.90;99.90;;;;;;5027169;28;20500;-71
2022/11/29 13:34:02;;;;;;;5.68;3.03;;;7.90;99.90;;;;;;5022198;28;20418;-71
2022/11/29 13:36:55;;;;;;;5.88;2.92;;;7.90;99.90;;;;;;5027332;28;20446;-72
2022/11/29 13:39:42;;;;;;;6.38;2.55;;;7.90;99.90;;;;;;5026350;28;20407;-71
2022/11/29 13:42:17;;;;;;;6.90;2.40;;;7.80;99.90;;;;;;5029642;28;20426;-70
2022/11/29 13:45:01;;;;;;;3.72;2.70;;;7.90;99.90;;;;;;5029035;28;20462;-72
2022/11/29 13:47:28;;;;;;;6.82;2.80;;;7.90;99.90;;;;;;5030053;28;20410;-71
2022/11/29 13:49:56;;;;;;;8.07;2.97;;;7.80;99.90;;;;;;5028820;28;20813;-71
2022/11/29 13:52:38;;;;;;;6.60;2.80;;;7.80;99.90;;;;;;5027164;28;20479;-69